Addison, Pennsylvania
Current Conditions -  °F | °C
As of 2:35 PM on Friday 24 Oct 2014 (Local Time) from K2G4 Reporting Station
Clear Clear  
Wind Chill: 50°   Ceiling: Unl
Heat Index: 50°   Visibility: 10mi
Dew Point: 28°   Wind: 8mph
Humidity: 43%   Direction: 270°W
Pressure: 30.01"   Gusts: NA
Location:  39.75°N, 79.34°W
Report Text: K2G4 241835Z AUTO 27007KT 252V312 10SM CLR 10/M02 A3001 RMK AO1
Loading
Personal Weather Stations






























Interactive Weather Map
Tropical Storm Tracking
New forecast layout! Learn more

10-Day Weather Forecast

Advertisements
Track Severe Weather on mobile